createdAt,value
2023-05-14T00:00:37.005Z,65.80
2023-05-14T00:01:36.981Z,66.50
2023-05-14T00:02:37.112Z,67.89
2023-05-14T00:03:37.045Z,68.06
2023-05-14T00:04:36.974Z,68.24
2023-05-14T00:05:37.016Z,68.66
2023-05-14T00:06:36.909Z,68.96
2023-05-14T00:07:36.910Z,68.83
2023-05-14T00:08:36.928Z,69.60
2023-05-14T00:09:36.880Z,70.16
2023-05-14T00:10:36.868Z,68.07
2023-05-14T00:11:36.870Z,69.79
2023-05-14T00:12:36.866Z,69.68
2023-05-14T00:13:36.837Z,69.73
2023-05-14T00:14:36.858Z,69.62
2023-05-14T00:15:36.907Z,70.06
2023-05-14T00:16:36.857Z,69.65
2023-05-14T00:17:36.830Z,70.28
2023-05-14T00:18:36.838Z,70.24
2023-05-14T00:19:36.780Z,69.57
2023-05-14T00:20:36.766Z,70.15
2023-05-14T00:21:36.780Z,70.89
2023-05-14T00:22:36.744Z,69.99
2023-05-14T00:23:36.776Z,70.20
2023-05-14T00:24:36.744Z,70.17
2023-05-14T00:25:36.719Z,69.80
2023-05-14T00:26:36.718Z,70.82
2023-05-14T00:27:36.690Z,71.67
2023-05-14T00:28:36.674Z,71.66
2023-05-14T00:29:36.706Z,71.45
2023-05-14T00:30:36.662Z,71.19
2023-05-14T00:31:36.656Z,72.18
2023-05-14T00:32:36.662Z,72.66
2023-05-14T00:33:36.637Z,72.88
2023-05-14T00:34:36.612Z,72.14
2023-05-14T00:35:36.637Z,72.48
2023-05-14T00:36:36.619Z,72.66
2023-05-14T00:37:36.590Z,71.87
2023-05-14T00:38:36.575Z,71.75
2023-05-14T00:39:36.570Z,73.10
2023-05-14T00:40:36.552Z,72.88
2023-05-14T00:41:36.565Z,72.94
2023-05-14T00:42:36.560Z,73.24
2023-05-14T00:43:36.524Z,73.57
2023-05-14T00:44:36.515Z,73.48
2023-05-14T00:45:36.506Z,72.94
2023-05-14T00:46:36.537Z,73.10
2023-05-14T00:47:36.551Z,72.41
2023-05-14T00:48:36.465Z,72.20
2023-05-14T00:49:36.459Z,73.31
2023-05-14T00:50:36.441Z,73.96
2023-05-14T00:51:36.448Z,74.22
2023-05-14T00:52:36.427Z,73.93
2023-05-14T00:53:36.438Z,73.56
2023-05-14T00:54:36.414Z,73.85
2023-05-14T00:55:36.393Z,73.06
2023-05-14T00:56:36.382Z,72.79
2023-05-14T00:57:36.391Z,72.78
2023-05-14T00:58:36.387Z,72.71
2023-05-14T00:59:36.350Z,72.99
2023-05-14T01:00:36.348Z,73.04
2023-05-14T01:01:36.396Z,73.29
2023-05-14T01:02:36.428Z,73.06
2023-05-14T01:03:36.468Z,73.29
2023-05-14T01:04:36.291Z,72.95
2023-05-14T01:05:36.279Z,73.08
2023-05-14T01:06:36.289Z,73.47
2023-05-14T01:07:36.267Z,73.71
2023-05-14T01:08:36.256Z,73.72
2023-05-14T01:09:36.277Z,73.64
2023-05-14T01:10:36.238Z,73.96
2023-05-14T01:11:36.218Z,73.92
2023-05-14T01:12:36.239Z,74.15
2023-05-14T01:13:36.200Z,74.04
2023-05-14T01:14:36.197Z,73.61
2023-05-14T01:15:36.203Z,74.36
2023-05-14T01:16:36.237Z,74.38
2023-05-14T01:17:36.184Z,74.07
2023-05-14T01:18:36.184Z,74.61
2023-05-14T01:19:36.132Z,75.07
2023-05-14T01:20:36.177Z,75.20
2023-05-14T01:21:36.155Z,74.70
2023-05-14T01:22:36.124Z,73.21
2023-05-14T01:23:36.104Z,72.41
2023-05-14T01:24:36.118Z,73.45
2023-05-14T01:25:36.073Z,72.71
2023-05-14T01:26:36.071Z,72.55
2023-05-14T01:27:36.081Z,73.72
2023-05-14T01:28:36.041Z,74.29
2023-05-14T01:29:36.020Z,74.40
2023-05-14T01:30:36.056Z,74.72
2023-05-14T01:31:36.064Z,74.93
2023-05-14T01:32:36.030Z,75.08
2023-05-14T01:33:35.980Z,74.41
2023-05-14T01:34:35.975Z,75.11
2023-05-14T01:35:35.964Z,74.52
2023-05-14T01:36:35.990Z,74.21
2023-05-14T01:37:35.951Z,74.49
2023-05-14T01:38:35.929Z,75.01
2023-05-14T01:39:35.916Z,75.03
2023-05-14T01:40:35.920Z,74.89
2023-05-14T01:41:35.895Z,73.42
2023-05-14T01:42:35.925Z,72.90
2023-05-14T01:43:36.071Z,74.32
2023-05-14T01:44:35.863Z,74.96
2023-05-14T01:45:35.864Z,75.40
2023-05-14T01:46:35.951Z,75.79
2023-05-14T01:47:35.874Z,75.83
2023-05-14T01:48:35.853Z,76.24
2023-05-14T01:49:35.827Z,76.89
2023-05-14T01:50:35.810Z,76.79
2023-05-14T01:51:35.812Z,76.29
2023-05-14T01:52:35.772Z,76.46
2023-05-14T01:53:35.790Z,76.82
2023-05-14T01:54:35.753Z,77.02
2023-05-14T01:55:35.743Z,75.71
2023-05-14T01:56:35.759Z,76.27
2023-05-14T01:57:35.729Z,76.95
2023-05-14T01:58:35.739Z,76.87
2023-05-14T01:59:35.703Z,76.83
2023-05-14T02:00:35.706Z,76.54
2023-05-14T02:01:35.727Z,76.44
2023-05-14T02:02:35.692Z,75.44
2023-05-14T02:03:35.730Z,76.64
2023-05-14T02:04:35.655Z,76.54
2023-05-14T02:05:35.640Z,77.30
2023-05-14T02:06:35.619Z,77.20
2023-05-14T02:07:35.633Z,76.39
2023-05-14T02:08:35.602Z,77.10
2023-05-14T02:09:35.626Z,77.13
2023-05-14T02:10:35.579Z,76.78
2023-05-14T02:11:35.572Z,76.63
2023-05-14T02:12:35.568Z,76.79
2023-05-14T02:13:35.558Z,75.91
2023-05-14T02:14:35.564Z,76.74
2023-05-14T02:15:35.666Z,76.51
2023-05-14T02:16:35.584Z,76.91
2023-05-14T02:17:35.660Z,76.81
2023-05-14T02:18:35.527Z,75.96
2023-05-14T02:19:35.487Z,75.25
2023-05-14T02:20:35.483Z,75.46
2023-05-14T02:21:35.459Z,75.26
2023-05-14T02:22:35.498Z,75.47
2023-05-14T02:23:41.518Z,76.00
2023-05-14T02:24:35.443Z,76.61
2023-05-14T02:25:35.458Z,76.83
2023-05-14T02:26:35.424Z,76.98
2023-05-14T02:27:35.436Z,76.63
2023-05-14T02:28:35.436Z,77.00
2023-05-14T02:29:35.379Z,76.69
2023-05-14T02:30:35.380Z,76.38
2023-05-14T02:31:35.420Z,77.31
2023-05-14T02:32:35.380Z,77.64
2023-05-14T02:33:35.398Z,77.75
2023-05-14T02:34:35.368Z,77.62
2023-05-14T02:35:35.318Z,77.26
2023-05-14T02:36:35.312Z,77.38
2023-05-14T02:37:35.297Z,77.00
2023-05-14T02:38:35.283Z,76.81
2023-05-14T02:39:35.305Z,76.54
2023-05-14T02:40:35.295Z,76.15
2023-05-14T02:41:35.259Z,76.80
2023-05-14T02:42:35.242Z,76.69
2023-05-14T02:43:35.237Z,76.85
2023-05-14T02:44:35.235Z,76.97
2023-05-14T02:45:35.237Z,76.35
2023-05-14T02:46:35.383Z,76.83
2023-05-14T02:47:37.817Z,77.22
2023-05-14T02:48:35.180Z,77.82
2023-05-14T02:49:35.223Z,77.70
2023-05-14T02:50:35.164Z,76.83
2023-05-14T02:51:35.176Z,76.93
2023-05-14T02:52:35.136Z,77.00
2023-05-14T02:53:35.122Z,77.10
2023-05-14T02:54:35.121Z,76.76
2023-05-14T02:55:35.131Z,77.10
2023-05-14T02:56:35.091Z,77.57
2023-05-14T02:57:35.115Z,77.15
2023-05-14T02:58:35.111Z,77.22
2023-05-14T02:59:35.070Z,76.92
2023-05-14T03:00:35.060Z,77.47
2023-05-14T03:01:35.037Z,77.77
2023-05-14T03:02:35.173Z,78.61
2023-05-14T03:03:35.020Z,77.98
2023-05-14T03:04:35.038Z,77.76
2023-05-14T03:05:35.006Z,78.40
2023-05-14T03:06:35.000Z,78.22
2023-05-14T03:07:34.976Z,77.93
2023-05-14T03:08:34.989Z,78.45
2023-05-14T03:09:37.981Z,78.36
2023-05-14T03:10:34.969Z,78.43
2023-05-14T03:11:34.938Z,78.62
2023-05-14T03:12:34.924Z,78.90
2023-05-14T03:13:34.911Z,78.43
2023-05-14T03:14:34.968Z,78.38
2023-05-14T03:15:34.888Z,78.66
2023-05-14T03:16:34.901Z,79.46
2023-05-14T03:17:34.900Z,79.33
2023-05-14T03:18:34.913Z,79.12
2023-05-14T03:19:34.878Z,79.23
2023-05-14T03:20:34.860Z,79.48
2023-05-14T03:21:34.829Z,79.14
2023-05-14T03:22:34.816Z,78.91
2023-05-14T03:23:34.814Z,78.90
2023-05-14T03:24:34.793Z,78.68
2023-05-14T03:25:34.806Z,78.80
2023-05-14T03:26:34.778Z,79.05
2023-05-14T03:27:34.760Z,79.26
2023-05-14T03:28:34.765Z,79.40
2023-05-14T03:29:34.738Z,79.90
2023-05-14T03:30:34.875Z,79.60
2023-05-14T03:31:34.721Z,79.68
2023-05-14T03:32:34.753Z,79.53
2023-05-14T03:33:34.701Z,79.61
2023-05-14T03:34:34.682Z,79.59
2023-05-14T03:35:34.678Z,80.21
2023-05-14T03:36:34.703Z,79.75
2023-05-14T03:37:34.687Z,80.40
2023-05-14T03:38:34.650Z,79.43
2023-05-14T03:39:34.667Z,80.29
2023-05-14T03:40:34.638Z,79.70
2023-05-14T03:41:34.610Z,79.72
2023-05-14T03:42:34.607Z,79.36
2023-05-14T03:43:34.613Z,79.66
2023-05-14T03:44:34.576Z,79.33
2023-05-14T03:45:34.573Z,78.27
2023-05-14T03:46:34.549Z,78.37
2023-05-14T03:47:34.586Z,78.90
2023-05-14T03:48:34.567Z,79.72
2023-05-14T03:49:34.554Z,79.76
2023-05-14T03:50:34.514Z,79.84
2023-05-14T03:51:34.503Z,79.39
2023-05-14T03:52:34.496Z,78.89
2023-05-14T03:53:34.486Z,79.41
2023-05-14T03:54:34.486Z,80.17
2023-05-14T03:55:34.488Z,80.33
2023-05-14T03:56:34.454Z,80.09
2023-05-14T03:57:34.450Z,79.27
2023-05-14T03:58:34.430Z,79.00
2023-05-14T03:59:34.448Z,79.60
2023-05-14T04:00:34.435Z,80.04
2023-05-14T04:01:34.388Z,79.69
2023-05-14T04:02:34.485Z,79.79
2023-05-14T04:03:34.602Z,79.43
2023-05-14T04:04:34.375Z,79.21
2023-05-14T04:05:34.391Z,79.43
2023-05-14T04:06:34.394Z,80.30
2023-05-14T04:07:34.343Z,79.65
2023-05-14T04:08:34.329Z,79.52
2023-05-14T04:09:34.316Z,79.90
2023-05-14T04:10:34.327Z,79.94
2023-05-14T04:11:34.299Z,80.00
2023-05-14T04:12:34.325Z,80.46
2023-05-14T04:13:34.268Z,80.18
2023-05-14T04:14:34.244Z,80.94
2023-05-14T04:15:34.243Z,80.30
2023-05-14T04:16:34.320Z,80.55
2023-05-14T04:17:35.083Z,81.33
2023-05-14T04:18:34.255Z,80.76
2023-05-14T04:19:34.248Z,81.07
2023-05-14T04:20:34.203Z,80.09
2023-05-14T04:21:34.212Z,80.67
2023-05-14T04:22:34.174Z,80.83
2023-05-14T04:23:34.164Z,79.67
2023-05-14T04:24:34.153Z,79.43
2023-05-14T04:25:34.139Z,79.48
2023-05-14T04:26:34.165Z,79.45
2023-05-14T04:27:34.112Z,79.14
2023-05-14T04:28:34.101Z,79.61
2023-05-14T04:29:34.100Z,78.61
2023-05-14T04:30:34.115Z,79.12
2023-05-14T04:31:34.161Z,79.51
2023-05-14T04:32:34.142Z,78.45
2023-05-14T04:33:34.049Z,78.40
2023-05-14T04:34:34.070Z,78.07
2023-05-14T04:35:34.024Z,78.68
2023-05-14T04:36:34.026Z,79.57
2023-05-14T04:37:34.065Z,79.15
2023-05-14T04:38:34.001Z,78.39
2023-05-14T04:39:33.970Z,79.11
2023-05-14T04:40:33.962Z,79.30
2023-05-14T04:41:33.974Z,78.88
2023-05-14T04:42:33.945Z,79.31
2023-05-14T04:43:33.951Z,79.03
2023-05-14T04:44:33.920Z,79.30
2023-05-14T04:45:34.486Z,79.85
2023-05-14T04:46:33.988Z,80.37
2023-05-14T04:47:33.978Z,80.81
2023-05-14T04:48:33.908Z,79.42
2023-05-14T04:49:33.879Z,80.11
2023-05-14T04:50:33.875Z,80.78
2023-05-14T04:51:33.854Z,78.71
2023-05-14T04:52:33.837Z,79.83
2023-05-14T04:53:33.825Z,79.39
2023-05-14T04:54:33.878Z,79.41
2023-05-14T04:55:33.831Z,79.39
2023-05-14T04:56:33.812Z,78.82
2023-05-14T04:57:33.771Z,77.68
2023-05-14T04:58:35.087Z,77.90
2023-05-14T04:59:33.767Z,77.05
2023-05-14T05:00:33.760Z,77.74
2023-05-14T05:01:33.775Z,78.49
2023-05-14T05:02:33.757Z,78.10
2023-05-14T05:03:33.757Z,78.03
2023-05-14T05:04:33.701Z,78.02
2023-05-14T05:05:33.708Z,76.97
2023-05-14T05:06:33.736Z,77.25
2023-05-14T05:07:33.690Z,75.59
2023-05-14T05:08:33.669Z,75.85
2023-05-14T05:09:33.683Z,74.62
2023-05-14T05:10:33.650Z,74.74
2023-05-14T05:11:33.648Z,74.64
2023-05-14T05:12:33.661Z,74.48
2023-05-14T05:13:33.626Z,74.55
2023-05-14T05:14:33.601Z,74.54
2023-05-14T05:15:33.629Z,76.16
2023-05-14T05:16:33.619Z,75.30
2023-05-14T05:17:33.575Z,75.55
2023-05-14T05:18:33.581Z,76.60
2023-05-14T05:19:43.122Z,75.59
2023-05-14T05:20:33.543Z,75.21
2023-05-14T05:21:33.551Z,75.27
2023-05-14T05:22:33.552Z,75.56
2023-05-14T05:23:33.509Z,75.88
2023-05-14T05:24:33.498Z,74.97
2023-05-14T05:25:33.484Z,75.56
2023-05-14T05:26:33.503Z,77.30
2023-05-14T05:27:33.476Z,75.75
2023-05-14T05:28:33.459Z,75.49
2023-05-14T05:29:33.450Z,74.92
2023-05-14T05:30:33.429Z,73.53
2023-05-14T05:31:33.503Z,73.84
2023-05-14T05:32:33.439Z,74.84
2023-05-14T05:33:33.394Z,75.05
2023-05-14T05:34:33.409Z,75.70
2023-05-14T05:35:33.372Z,74.92
2023-05-14T05:36:33.367Z,76.48
2023-05-14T05:37:33.362Z,75.95
2023-05-14T05:38:33.342Z,74.70
2023-05-14T05:39:33.365Z,75.68
2023-05-14T05:40:33.319Z,75.60
2023-05-14T05:41:33.318Z,75.60
2023-05-14T05:42:33.307Z,75.34
2023-05-14T05:43:33.304Z,75.02
2023-05-14T05:44:33.281Z,74.96
2023-05-14T05:45:33.279Z,75.84
2023-05-14T05:46:33.327Z,75.39
2023-05-14T05:47:33.254Z,75.25
2023-05-14T05:48:33.264Z,74.58
2023-05-14T05:49:33.229Z,74.61
2023-05-14T05:50:33.217Z,74.21
2023-05-14T05:51:33.199Z,74.48
2023-05-14T05:52:33.187Z,74.89
2023-05-14T05:53:33.232Z,74.89
2023-05-14T05:54:33.166Z,74.44
2023-05-14T05:55:33.156Z,74.52
2023-05-14T05:56:33.169Z,73.45
2023-05-14T05:57:33.136Z,73.35
2023-05-14T05:58:33.123Z,73.27
2023-05-14T05:59:33.110Z,72.81
2023-05-14T06:00:33.115Z,72.51
2023-05-14T06:01:33.118Z,72.73
2023-05-14T06:02:33.206Z,72.47
2023-05-14T06:03:33.084Z,72.92
2023-05-14T06:04:33.095Z,73.10
2023-05-14T06:05:33.109Z,72.45
2023-05-14T06:06:33.110Z,72.54
2023-05-14T06:07:33.032Z,72.85
2023-05-14T06:08:33.017Z,71.58
2023-05-14T06:09:33.016Z,72.34
2023-05-14T06:10:33.023Z,72.47
2023-05-14T06:11:32.981Z,72.12
2023-05-14T06:12:32.981Z,72.04
2023-05-14T06:13:32.966Z,72.83
2023-05-14T06:14:32.955Z,72.75
2023-05-14T06:15:32.969Z,71.27
2023-05-14T06:16:33.047Z,71.33
2023-05-14T06:17:33.140Z,71.62
2023-05-14T06:18:32.946Z,71.31
2023-05-14T06:19:32.983Z,71.07
2023-05-14T06:20:32.887Z,70.85
2023-05-14T06:21:32.889Z,70.11
2023-05-14T06:22:32.885Z,69.94
2023-05-14T06:23:32.867Z,70.32
2023-05-14T06:24:32.838Z,70.64
2023-05-14T06:25:32.857Z,70.13
2023-05-14T06:26:32.830Z,70.08
2023-05-14T06:27:32.858Z,70.13
2023-05-14T06:28:32.802Z,69.59
2023-05-14T06:29:32.791Z,69.66
2023-05-14T06:30:32.803Z,69.62
2023-05-14T06:31:32.842Z,69.57
2023-05-14T06:32:32.766Z,69.50
2023-05-14T06:33:32.746Z,69.91
2023-05-14T06:34:32.746Z,70.35
2023-05-14T06:35:32.793Z,70.24
2023-05-14T06:36:32.718Z,70.04
2023-05-14T06:37:32.707Z,70.15
2023-05-14T06:38:32.715Z,70.11
2023-05-14T06:39:32.684Z,70.28
2023-05-14T06:40:32.683Z,69.83
2023-05-14T06:41:32.688Z,69.84
2023-05-14T06:42:32.692Z,69.82
2023-05-14T06:43:32.653Z,70.00
2023-05-14T06:44:32.642Z,69.93
2023-05-14T06:45:33.337Z,70.18
2023-05-14T06:46:32.610Z,70.00
2023-05-14T06:47:32.617Z,69.30
2023-05-14T06:48:32.713Z,68.86
2023-05-14T06:49:32.584Z,68.76
2023-05-14T06:50:32.554Z,68.35
2023-05-14T06:51:32.559Z,68.44
2023-05-14T06:52:32.545Z,69.08
2023-05-14T06:53:32.536Z,68.12
2023-05-14T06:54:32.583Z,69.08
2023-05-14T06:55:32.518Z,67.82
2023-05-14T06:56:32.506Z,67.38
2023-05-14T06:57:32.502Z,67.57
2023-05-14T06:58:32.482Z,67.46
2023-05-14T06:59:32.506Z,69.15
2023-05-14T07:00:32.452Z,68.80
2023-05-14T07:01:32.545Z,68.10
2023-05-14T07:02:32.487Z,67.88
2023-05-14T07:03:32.429Z,67.60
2023-05-14T07:04:32.451Z,67.38
2023-05-14T07:05:32.446Z,66.60
2023-05-14T07:06:32.401Z,68.69
2023-05-14T07:07:32.392Z,66.53
2023-05-14T07:08:32.390Z,67.08
2023-05-14T07:09:32.378Z,66.97
2023-05-14T07:10:32.394Z,65.80
2023-05-14T07:11:32.384Z,65.83
2023-05-14T07:12:32.356Z,66.34
2023-05-14T07:13:32.339Z,66.19
2023-05-14T07:14:32.372Z,65.37
2023-05-14T07:15:32.337Z,65.98
2023-05-14T07:16:32.333Z,65.55
2023-05-14T07:17:32.388Z,66.23
2023-05-14T07:18:32.314Z,65.54
2023-05-14T07:19:32.270Z,66.06
2023-05-14T07:20:32.254Z,65.49
2023-05-14T07:21:32.246Z,65.23
2023-05-14T07:22:32.231Z,65.63
2023-05-14T07:23:32.266Z,65.49
2023-05-14T07:24:32.205Z,65.12
2023-05-14T07:25:32.204Z,65.28
2023-05-14T07:26:32.186Z,65.10
2023-05-14T07:27:32.241Z,65.13
2023-05-14T07:28:32.198Z,64.72
2023-05-14T07:29:32.148Z,64.95
2023-05-14T07:30:32.238Z,65.49
2023-05-14T07:31:32.150Z,64.02
2023-05-14T07:32:32.163Z,64.19
2023-05-14T07:33:32.314Z,64.47
2023-05-14T07:34:32.122Z,64.77
2023-05-14T07:35:32.083Z,64.10
2023-05-14T07:36:32.098Z,64.10
2023-05-14T07:37:32.077Z,63.04
2023-05-14T07:38:32.076Z,63.60
2023-05-14T07:39:32.050Z,64.22
2023-05-14T07:40:32.147Z,62.93
2023-05-14T07:41:32.028Z,62.58
2023-05-14T07:42:36.370Z,63.08
2023-05-14T07:43:32.047Z,63.51
2023-05-14T07:44:32.043Z,63.78
2023-05-14T07:45:32.068Z,62.32
2023-05-14T07:46:31.982Z,61.57
2023-05-14T07:47:32.127Z,61.64
2023-05-14T07:48:32.008Z,62.48
2023-05-14T07:49:31.941Z,62.25
2023-05-14T07:50:31.941Z,62.19
2023-05-14T07:51:31.940Z,61.69
2023-05-14T07:52:32.066Z,62.84
2023-05-14T07:53:31.920Z,60.70
2023-05-14T07:54:31.960Z,61.54
2023-05-14T07:55:31.992Z,61.94
2023-05-14T07:56:31.866Z,62.52
2023-05-14T07:57:31.883Z,61.04
2023-05-14T07:58:31.869Z,59.70
2023-05-14T07:59:31.838Z,60.72
2023-05-14T08:00:32.054Z,59.74
2023-05-14T08:01:31.826Z,59.80
2023-05-14T08:02:32.036Z,59.92
2023-05-14T08:03:31.932Z,60.25
2023-05-14T08:04:31.941Z,59.76
2023-05-14T08:05:31.811Z,60.43
2023-05-14T08:06:31.762Z,60.69
2023-05-14T08:07:31.759Z,60.00
2023-05-14T08:08:31.754Z,58.34
2023-05-14T08:09:31.765Z,58.58
2023-05-14T08:10:31.778Z,58.31
2023-05-14T08:11:31.751Z,58.11
2023-05-14T08:12:31.717Z,58.98
2023-05-14T08:13:31.697Z,59.57
2023-05-14T08:14:31.690Z,57.37
2023-05-14T08:15:31.718Z,57.54
2023-05-14T08:16:31.665Z,56.28
2023-05-14T08:17:31.789Z,57.72
2023-05-14T08:18:31.705Z,56.85
2023-05-14T08:19:31.630Z,56.57
2023-05-14T08:20:31.615Z,57.97
2023-05-14T08:21:31.639Z,56.81
2023-05-14T08:22:31.632Z,56.60
2023-05-14T08:23:31.597Z,56.55
2023-05-14T08:24:31.587Z,57.83
2023-05-14T08:25:31.559Z,56.30
2023-05-14T08:26:31.560Z,56.11
2023-05-14T08:27:31.546Z,56.25
2023-05-14T08:28:31.554Z,56.01
2023-05-14T08:29:31.548Z,57.21
2023-05-14T08:30:31.538Z,55.45
2023-05-14T08:31:31.628Z,54.49
2023-05-14T08:32:31.510Z,54.77
2023-05-14T08:33:31.520Z,54.79
2023-05-14T08:34:31.474Z,54.02
2023-05-14T08:35:31.478Z,54.45
2023-05-14T08:36:31.464Z,54.23
2023-05-14T08:37:31.573Z,55.77
2023-05-14T08:38:31.463Z,55.69
2023-05-14T08:39:31.448Z,55.10
2023-05-14T08:40:31.414Z,53.97
2023-05-14T08:41:31.427Z,53.69
2023-05-14T08:42:31.380Z,53.33
2023-05-14T08:43:31.388Z,55.43
2023-05-14T08:44:31.356Z,53.47
2023-05-14T08:45:31.358Z,53.35
2023-05-14T08:46:31.384Z,55.38
2023-05-14T08:47:31.412Z,53.64
2023-05-14T08:48:31.432Z,52.99
2023-05-14T08:49:31.301Z,54.30
2023-05-14T08:50:31.354Z,53.05
2023-05-14T08:51:31.279Z,53.38
2023-05-14T08:52:31.301Z,53.74
2023-05-14T08:53:31.261Z,53.09
2023-05-14T08:54:31.246Z,52.27
2023-05-14T08:55:31.235Z,50.81
2023-05-14T08:56:31.219Z,53.09
2023-05-14T08:57:31.245Z,51.60
2023-05-14T08:58:31.221Z,52.86
2023-05-14T08:59:31.223Z,52.36
2023-05-14T09:00:31.238Z,53.07
2023-05-14T09:01:31.200Z,52.18
2023-05-14T09:02:31.389Z,51.53
2023-05-14T09:03:31.243Z,51.42
2023-05-14T09:04:31.159Z,50.97
2023-05-14T09:05:31.152Z,51.78
2023-05-14T09:06:31.131Z,52.11
2023-05-14T09:07:31.143Z,51.80
2023-05-14T09:08:31.089Z,51.26
2023-05-14T09:09:31.143Z,51.21
2023-05-14T09:10:31.074Z,50.91
2023-05-14T09:11:31.061Z,51.36
2023-05-14T09:12:31.043Z,49.14
2023-05-14T09:13:31.047Z,50.04
2023-05-14T09:14:31.024Z,50.16
2023-05-14T09:15:31.068Z,50.50
2023-05-14T09:16:31.072Z,49.82
2023-05-14T09:17:31.044Z,50.97
2023-05-14T09:18:30.986Z,53.18
2023-05-14T09:19:30.966Z,52.46
2023-05-14T09:20:30.993Z,52.92
2023-05-14T09:21:32.892Z,50.50
2023-05-14T09:22:30.941Z,50.18
2023-05-14T09:23:30.933Z,49.84
2023-05-14T09:24:30.986Z,49.48
2023-05-14T09:25:30.923Z,50.25
2023-05-14T09:26:30.897Z,49.01
2023-05-14T09:27:30.893Z,49.19
2023-05-14T09:28:30.904Z,49.52
2023-05-14T09:29:30.875Z,48.70
2023-05-14T09:30:30.945Z,48.45
2023-05-14T09:31:30.884Z,48.31
2023-05-14T09:32:30.836Z,49.24
2023-05-14T09:33:30.836Z,49.61
2023-05-14T09:34:30.819Z,49.76
2023-05-14T09:35:30.809Z,49.15
2023-05-14T09:36:30.829Z,49.81
2023-05-14T09:37:30.815Z,52.05
2023-05-14T09:38:30.807Z,49.47
2023-05-14T09:39:30.850Z,49.26
2023-05-14T09:40:30.753Z,50.24
2023-05-14T09:41:30.774Z,50.64
2023-05-14T09:42:30.735Z,50.18
2023-05-14T09:43:30.746Z,49.25
2023-05-14T09:44:30.710Z,49.52
2023-05-14T09:45:30.806Z,51.76
2023-05-14T09:46:30.731Z,49.92
2023-05-14T09:47:30.755Z,51.60
2023-05-14T09:48:30.734Z,50.47
2023-05-14T09:49:30.644Z,51.67
2023-05-14T09:50:30.683Z,50.69
2023-05-14T09:51:30.637Z,50.65
2023-05-14T09:52:30.686Z,50.77
2023-05-14T09:53:30.603Z,47.94
2023-05-14T09:54:30.686Z,47.99
2023-05-14T09:55:30.637Z,50.59
2023-05-14T09:56:30.665Z,50.40
2023-05-14T09:57:30.560Z,49.97
2023-05-14T09:58:30.558Z,47.34
2023-05-14T09:59:30.534Z,46.90
2023-05-14T10:00:30.537Z,45.72
2023-05-14T10:01:30.542Z,45.57
2023-05-14T10:02:30.568Z,46.14
2023-05-14T10:03:30.504Z,48.36
2023-05-14T10:04:30.564Z,47.19
2023-05-14T10:05:30.488Z,48.25
2023-05-14T10:06:30.471Z,48.70
2023-05-14T10:07:30.487Z,47.50
2023-05-14T10:08:30.450Z,46.98
2023-05-14T10:09:30.452Z,49.17
2023-05-14T10:10:30.426Z,48.56
2023-05-14T10:11:30.430Z,46.89
2023-05-14T10:12:30.391Z,47.56
2023-05-14T10:13:30.430Z,47.57
2023-05-14T10:14:30.396Z,47.82
2023-05-14T10:15:30.374Z,46.48
2023-05-14T10:16:30.450Z,46.23
2023-05-14T10:17:30.385Z,45.60
2023-05-14T10:18:30.361Z,45.60
2023-05-14T10:19:30.385Z,47.46
2023-05-14T10:20:30.325Z,46.05
2023-05-14T10:21:30.306Z,45.55
2023-05-14T10:22:30.297Z,46.61
2023-05-14T10:23:30.291Z,46.95
2023-05-14T10:24:30.317Z,45.88
2023-05-14T10:25:30.264Z,46.17
2023-05-14T10:26:30.316Z,45.66
2023-05-14T10:27:30.240Z,46.84
2023-05-14T10:28:30.267Z,47.80
2023-05-14T10:29:30.234Z,47.86
2023-05-14T10:30:30.253Z,44.98
2023-05-14T10:31:30.267Z,44.11
2023-05-14T10:32:30.196Z,44.40
2023-05-14T10:33:30.171Z,43.76
2023-05-14T10:34:30.165Z,44.66
2023-05-14T10:35:30.189Z,44.90
2023-05-14T10:36:30.155Z,44.14
2023-05-14T10:37:30.155Z,45.16
2023-05-14T10:38:30.119Z,47.36
2023-05-14T10:39:30.113Z,43.99
2023-05-14T10:40:30.088Z,46.35
2023-05-14T10:41:30.118Z,44.07
2023-05-14T10:42:30.068Z,45.69
2023-05-14T10:43:30.053Z,45.87
2023-05-14T10:44:30.058Z,44.80
2023-05-14T10:45:30.033Z,47.36
2023-05-14T10:46:30.075Z,45.84
2023-05-14T10:47:30.051Z,46.19
2023-05-14T10:48:30.035Z,45.55
2023-05-14T10:49:42.952Z,46.38
2023-05-14T10:50:30.016Z,45.76
2023-05-14T10:51:30.010Z,45.14
2023-05-14T10:52:30.016Z,46.99
2023-05-14T10:53:29.964Z,46.26
2023-05-14T10:54:29.953Z,44.21
2023-05-14T10:55:29.939Z,43.68
2023-05-14T10:56:29.933Z,44.64
2023-05-14T10:57:29.919Z,45.11
2023-05-14T10:58:30.021Z,44.92
2023-05-14T10:59:29.901Z,45.81
2023-05-14T11:00:29.893Z,45.32
2023-05-14T11:01:29.938Z,45.29
2023-05-14T11:02:29.912Z,44.24
2023-05-14T11:03:29.904Z,44.31
2023-05-14T11:04:29.865Z,43.77
2023-05-14T11:05:29.856Z,46.73
2023-05-14T11:06:29.847Z,46.31
2023-05-14T11:07:29.948Z,46.12
2023-05-14T11:08:29.801Z,48.17
2023-05-14T11:09:29.790Z,48.34
2023-05-14T11:10:29.806Z,46.64
2023-05-14T11:11:29.780Z,47.34
2023-05-14T11:12:29.760Z,46.26
2023-05-14T11:13:29.785Z,46.07
2023-05-14T11:14:29.768Z,48.93
2023-05-14T11:15:29.737Z,43.91
2023-05-14T11:16:29.770Z,46.31
2023-05-14T11:17:29.728Z,45.44
2023-05-14T11:18:29.760Z,45.69
2023-05-14T11:19:29.698Z,43.99
2023-05-14T11:20:29.744Z,44.07
2023-05-14T11:21:29.736Z,45.61
2023-05-14T11:22:29.647Z,47.41
2023-05-14T11:23:29.694Z,46.06
2023-05-14T11:24:29.638Z,47.35
2023-05-14T11:25:29.651Z,45.25
2023-05-14T11:26:29.718Z,46.75
2023-05-14T11:27:29.608Z,46.14
2023-05-14T11:28:29.631Z,45.82
2023-05-14T11:29:29.580Z,47.48
2023-05-14T11:30:29.597Z,46.97
2023-05-14T11:31:29.622Z,44.70
2023-05-14T11:32:29.602Z,44.13
2023-05-14T11:33:29.567Z,44.79
2023-05-14T11:34:29.547Z,46.43
2023-05-14T11:35:29.549Z,47.01
2023-05-14T11:36:29.691Z,47.56
2023-05-14T11:37:29.539Z,45.97
2023-05-14T11:38:29.622Z,46.45
2023-05-14T11:39:29.618Z,47.36
2023-05-14T11:40:29.457Z,44.93
2023-05-14T11:41:29.482Z,44.83
2023-05-14T11:42:29.440Z,45.53
2023-05-14T11:43:29.583Z,46.25
2023-05-14T11:44:29.533Z,47.46
2023-05-14T11:45:29.424Z,45.96
2023-05-14T11:46:29.403Z,47.12
2023-05-14T11:47:29.406Z,45.88
2023-05-14T11:48:29.554Z,48.20
2023-05-14T11:49:29.704Z,45.61
2023-05-14T11:50:29.479Z,46.77
2023-05-14T11:51:29.565Z,47.33
2023-05-14T11:52:29.490Z,47.41
2023-05-14T11:53:29.361Z,44.80
2023-05-14T11:54:29.420Z,45.40
2023-05-14T11:55:29.322Z,45.24
2023-05-14T11:56:29.367Z,45.80
2023-05-14T11:57:29.494Z,45.52
2023-05-14T11:58:29.269Z,47.09
2023-05-14T11:59:29.293Z,45.48
2023-05-14T12:00:29.303Z,46.22
2023-05-14T12:01:29.235Z,45.44
2023-05-14T12:02:29.578Z,47.04
2023-05-14T12:03:29.687Z,46.04
2023-05-14T12:04:29.387Z,46.13
2023-05-14T12:05:29.192Z,47.22
2023-05-14T12:06:29.268Z,46.41
2023-05-14T12:07:29.219Z,46.98
2023-05-14T12:08:29.189Z,44.94
2023-05-14T12:09:29.241Z,44.20
2023-05-14T12:10:29.233Z,44.53
2023-05-14T12:11:29.316Z,45.00
2023-05-14T12:12:29.145Z,47.38
2023-05-14T12:13:29.152Z,47.37
2023-05-14T12:14:29.124Z,46.50
2023-05-14T12:15:29.127Z,46.77
2023-05-14T12:16:29.236Z,46.73
2023-05-14T12:17:29.163Z,47.79
2023-05-14T12:18:29.222Z,47.30
2023-05-14T12:19:29.265Z,47.06
2023-05-14T12:20:29.077Z,46.91
2023-05-14T12:21:29.260Z,47.05
2023-05-14T12:22:29.220Z,48.15
2023-05-14T12:23:29.125Z,47.13
2023-05-14T12:24:29.320Z,47.94
2023-05-14T12:25:29.348Z,46.72
2023-05-14T12:26:28.999Z,47.64
2023-05-14T12:27:29.015Z,46.79
2023-05-14T12:28:29.047Z,46.55
2023-05-14T12:29:28.963Z,47.51
2023-05-14T12:30:29.103Z,47.32
2023-05-14T12:31:29.015Z,47.75
2023-05-14T12:32:28.959Z,49.30
2023-05-14T12:33:28.925Z,47.72
2023-05-14T12:34:28.905Z,47.62
2023-05-14T12:35:28.885Z,47.58
2023-05-14T12:36:28.884Z,48.23
2023-05-14T12:37:31.124Z,47.88
2023-05-14T12:38:28.840Z,45.67
2023-05-14T12:39:28.935Z,44.80
2023-05-14T12:40:28.885Z,45.26
2023-05-14T12:41:29.169Z,45.67
2023-05-14T12:42:28.814Z,45.99
2023-05-14T12:43:29.004Z,44.62
2023-05-14T12:44:29.130Z,43.54
2023-05-14T12:45:29.614Z,43.73
2023-05-14T12:46:28.845Z,43.67
2023-05-14T12:47:28.825Z,44.44
2023-05-14T12:48:28.767Z,44.33
2023-05-14T12:49:28.727Z,44.48
2023-05-14T12:50:28.763Z,45.34
2023-05-14T12:51:28.727Z,45.00
2023-05-14T12:52:37.686Z,44.34